sensor_id;sensor_type;location;lat;lon;timestamp;P1;durP1;ratioP1;P2;durP2;ratioP2
57295;SDS011;43146;50.976;18.216;2023-03-01T00:01:32;258.80;;;66.80;;
57295;SDS011;43146;50.976;18.216;2023-03-01T00:03:58;59.40;;;20.80;;
57295;SDS011;43146;50.976;18.216;2023-03-01T00:06:24;109.00;;;32.80;;
57295;SDS011;43146;50.976;18.216;2023-03-01T00:08:51;168.30;;;43.10;;
57295;SDS011;43146;50.976;18.216;2023-03-01T00:13:47;99.40;;;30.90;;
57295;SDS011;43146;50.976;18.216;2023-03-01T00:16:17;134.00;;;41.50;;
57295;SDS011;43146;50.976;18.216;2023-03-01T00:18:45;125.30;;;40.60;;
57295;SDS011;43146;50.976;18.216;2023-03-01T00:21:15;114.70;;;39.10;;
57295;SDS011;43146;50.976;18.216;2023-03-01T00:23:40;116.20;;;38.70;;
57295;SDS011;43146;50.976;18.216;2023-03-01T00:26:07;97.50;;;36.70;;
57295;SDS011;43146;50.976;18.216;2023-03-01T00:28:35;110.60;;;36.40;;
57295;SDS011;43146;50.976;18.216;2023-03-01T00:31:04;113.40;;;39.50;;
57295;SDS011;43146;50.976;18.216;2023-03-01T00:33:31;105.50;;;35.80;;
57295;SDS011;43146;50.976;18.216;2023-03-01T00:36:00;103.60;;;35.90;;
57295;SDS011;43146;50.976;18.216;2023-03-01T00:38:25;104.90;;;37.40;;
57295;SDS011;43146;50.976;18.216;2023-03-01T00:40:51;93.00;;;35.00;;
57295;SDS011;43146;50.976;18.216;2023-03-01T00:43:21;104.60;;;37.30;;
57295;SDS011;43146;50.976;18.216;2023-03-01T00:45:47;106.20;;;38.50;;
57295;SDS011;43146;50.976;18.216;2023-03-01T00:48:12;113.30;;;40.00;;
57295;SDS011;43146;50.976;18.216;2023-03-01T00:50:38;123.60;;;40.20;;
57295;SDS011;43146;50.976;18.216;2023-03-01T00:53:04;126.90;;;43.70;;
57295;SDS011;43146;50.976;18.216;2023-03-01T00:55:30;183.20;;;56.00;;
57295;SDS011;43146;50.976;18.216;2023-03-01T00:57:56;144.60;;;47.30;;
57295;SDS011;43146;50.976;18.216;2023-03-01T01:00:22;157.00;;;47.70;;
57295;SDS011;43146;50.976;18.216;2023-03-01T01:02:48;146.30;;;48.40;;
57295;SDS011;43146;50.976;18.216;2023-03-01T01:05:14;110.40;;;37.60;;
57295;SDS011;43146;50.976;18.216;2023-03-01T01:07:46;99.40;;;36.80;;
57295;SDS011;43146;50.976;18.216;2023-03-01T01:10:13;107.90;;;38.50;;
57295;SDS011;43146;50.976;18.216;2023-03-01T01:12:43;130.40;;;45.20;;
57295;SDS011;43146;50.976;18.216;2023-03-01T01:15:10;202.10;;;63.90;;
57295;SDS011;43146;50.976;18.216;2023-03-01T01:17:38;158.40;;;57.20;;
57295;SDS011;43146;50.976;18.216;2023-03-01T01:20:04;195.60;;;72.60;;
57295;SDS011;43146;50.976;18.216;2023-03-01T01:22:30;363.10;;;132.10;;
57295;SDS011;43146;50.976;18.216;2023-03-01T01:24:55;241.80;;;85.80;;
57295;SDS011;43146;50.976;18.216;2023-03-01T01:27:21;346.40;;;111.30;;
57295;SDS011;43146;50.976;18.216;2023-03-01T01:29:46;432.20;;;149.70;;
57295;SDS011;43146;50.976;18.216;2023-03-01T01:32:12;450.00;;;171.70;;
57295;SDS011;43146;50.976;18.216;2023-03-01T01:34:37;356.20;;;126.20;;
57295;SDS011;43146;50.976;18.216;2023-03-01T01:37:04;269.80;;;93.50;;
57295;SDS011;43146;50.976;18.216;2023-03-01T01:39:33;147.80;;;54.00;;
57295;SDS011;43146;50.976;18.216;2023-03-01T01:42:01;196.60;;;63.90;;
57295;SDS011;43146;50.976;18.216;2023-03-01T01:44:27;270.80;;;89.30;;
57295;SDS011;43146;50.976;18.216;2023-03-01T01:46:54;190.90;;;65.20;;
57295;SDS011;43146;50.976;18.216;2023-03-01T01:52:00;303.00;;;106.20;;
57295;SDS011;43146;50.976;18.216;2023-03-01T01:57:50;163.10;;;51.60;;
57295;SDS011;43146;50.976;18.216;2023-03-01T02:00:25;156.20;;;55.60;;
57295;SDS011;43146;50.976;18.216;2023-03-01T02:03:00;152.00;;;53.40;;
57295;SDS011;43146;50.976;18.216;2023-03-01T02:05:51;145.60;;;50.40;;
57295;SDS011;43146;50.976;18.216;2023-03-01T02:08:25;72.80;;;27.60;;
57295;SDS011;43146;50.976;18.216;2023-03-01T02:10:52;105.30;;;42.80;;
57295;SDS011;43146;50.976;18.216;2023-03-01T02:13:19;52.30;;;17.90;;
57295;SDS011;43146;50.976;18.216;2023-03-01T02:15:45;117.30;;;41.10;;
57295;SDS011;43146;50.976;18.216;2023-03-01T02:18:12;50.80;;;19.20;;
57295;SDS011;43146;50.976;18.216;2023-03-01T02:23:29;125.10;;;41.00;;
57295;SDS011;43146;50.976;18.216;2023-03-01T02:25:57;127.00;;;43.60;;
57295;SDS011;43146;50.976;18.216;2023-03-01T02:28:29;147.30;;;48.80;;
57295;SDS011;43146;50.976;18.216;2023-03-01T02:30:55;141.70;;;46.50;;
57295;SDS011;43146;50.976;18.216;2023-03-01T02:33:40;152.60;;;50.70;;
57295;SDS011;43146;50.976;18.216;2023-03-01T02:36:15;152.50;;;53.30;;
57295;SDS011;43146;50.976;18.216;2023-03-01T02:39:06;159.50;;;57.30;;
57295;SDS011;43146;50.976;18.216;2023-03-01T02:41:35;188.00;;;66.00;;
57295;SDS011;43146;50.976;18.216;2023-03-01T02:44:02;180.90;;;60.50;;
57295;SDS011;43146;50.976;18.216;2023-03-01T02:46:28;180.00;;;60.40;;
57295;SDS011;43146;50.976;18.216;2023-03-01T02:48:55;172.50;;;57.90;;
57295;SDS011;43146;50.976;18.216;2023-03-01T02:56:31;257.00;;;89.70;;
57295;SDS011;43146;50.976;18.216;2023-03-01T02:58:57;277.10;;;100.30;;
57295;SDS011;43146;50.976;18.216;2023-03-01T03:01:26;190.80;;;63.60;;
57295;SDS011;43146;50.976;18.216;2023-03-01T03:04:05;189.90;;;67.80;;
57295;SDS011;43146;50.976;18.216;2023-03-01T03:06:32;309.00;;;119.70;;
57295;SDS011;43146;50.976;18.216;2023-03-01T03:08:58;179.70;;;63.60;;
57295;SDS011;43146;50.976;18.216;2023-03-01T03:11:24;162.20;;;60.00;;
57295;SDS011;43146;50.976;18.216;2023-03-01T03:13:51;158.30;;;56.20;;
57295;SDS011;43146;50.976;18.216;2023-03-01T03:16:17;154.60;;;55.10;;
57295;SDS011;43146;50.976;18.216;2023-03-01T03:18:43;148.60;;;53.60;;
57295;SDS011;43146;50.976;18.216;2023-03-01T03:21:10;164.10;;;56.10;;
57295;SDS011;43146;50.976;18.216;2023-03-01T03:23:37;168.40;;;59.10;;
57295;SDS011;43146;50.976;18.216;2023-03-01T03:26:04;186.40;;;59.50;;
57295;SDS011;43146;50.976;18.216;2023-03-01T03:28:30;160.90;;;53.00;;
57295;SDS011;43146;50.976;18.216;2023-03-01T03:30:59;143.90;;;49.60;;
57295;SDS011;43146;50.976;18.216;2023-03-01T03:33:29;146.20;;;51.10;;
57295;SDS011;43146;50.976;18.216;2023-03-01T03:35:56;168.50;;;57.10;;
57295;SDS011;43146;50.976;18.216;2023-03-01T03:38:21;150.20;;;54.70;;
57295;SDS011;43146;50.976;18.216;2023-03-01T03:40:51;152.10;;;53.60;;
57295;SDS011;43146;50.976;18.216;2023-03-01T03:43:22;155.70;;;55.10;;
57295;SDS011;43146;50.976;18.216;2023-03-01T03:45:49;143.90;;;50.20;;
57295;SDS011;43146;50.976;18.216;2023-03-01T03:48:15;136.50;;;49.00;;
57295;SDS011;43146;50.976;18.216;2023-03-01T03:50:46;143.00;;;48.20;;
57295;SDS011;43146;50.976;18.216;2023-03-01T03:53:13;136.70;;;48.00;;
57295;SDS011;43146;50.976;18.216;2023-03-01T03:55:39;134.50;;;47.60;;
57295;SDS011;43146;50.976;18.216;2023-03-01T03:58:05;136.80;;;49.20;;
57295;SDS011;43146;50.976;18.216;2023-03-01T04:00:35;159.20;;;53.10;;
57295;SDS011;43146;50.976;18.216;2023-03-01T04:03:01;147.20;;;51.10;;
57295;SDS011;43146;50.976;18.216;2023-03-01T04:05:27;140.50;;;49.90;;
57295;SDS011;43146;50.976;18.216;2023-03-01T04:07:53;151.10;;;47.60;;
57295;SDS011;43146;50.976;18.216;2023-03-01T04:10:30;158.30;;;52.00;;
57295;SDS011;43146;50.976;18.216;2023-03-01T04:12:57;150.50;;;51.00;;
57295;SDS011;43146;50.976;18.216;2023-03-01T04:15:23;155.90;;;52.60;;
57295;SDS011;43146;50.976;18.216;2023-03-01T04:17:51;145.70;;;51.20;;
57295;SDS011;43146;50.976;18.216;2023-03-01T04:20:19;145.50;;;51.80;;
57295;SDS011;43146;50.976;18.216;2023-03-01T04:22:58;152.70;;;52.60;;
57295;SDS011;43146;50.976;18.216;2023-03-01T04:25:39;148.70;;;52.50;;
57295;SDS011;43146;50.976;18.216;2023-03-01T04:28:07;159.70;;;51.80;;
57295;SDS011;43146;50.976;18.216;2023-03-01T04:30:33;176.10;;;57.40;;
57295;SDS011;43146;50.976;18.216;2023-03-01T04:33:07;171.20;;;58.70;;
57295;SDS011;43146;50.976;18.216;2023-03-01T04:35:34;167.30;;;56.40;;
57295;SDS011;43146;50.976;18.216;2023-03-01T04:38:01;172.90;;;60.70;;
57295;SDS011;43146;50.976;18.216;2023-03-01T04:40:27;173.20;;;60.50;;
57295;SDS011;43146;50.976;18.216;2023-03-01T04:42:52;166.30;;;59.50;;
57295;SDS011;43146;50.976;18.216;2023-03-01T04:45:18;175.80;;;61.20;;
57295;SDS011;43146;50.976;18.216;2023-03-01T04:47:45;170.90;;;62.50;;
57295;SDS011;43146;50.976;18.216;2023-03-01T04:50:12;201.20;;;69.30;;
57295;SDS011;43146;50.976;18.216;2023-03-01T04:52:42;194.10;;;68.00;;
57295;SDS011;43146;50.976;18.216;2023-03-01T04:55:08;169.80;;;57.30;;
57295;SDS011;43146;50.976;18.216;2023-03-01T04:57:34;161.50;;;57.10;;
57295;SDS011;43146;50.976;18.216;2023-03-01T05:00:00;186.30;;;66.20;;
57295;SDS011;43146;50.976;18.216;2023-03-01T05:02:26;174.60;;;64.00;;
57295;SDS011;43146;50.976;18.216;2023-03-01T05:04:52;159.30;;;56.30;;
57295;SDS011;43146;50.976;18.216;2023-03-01T05:07:17;168.00;;;54.20;;
57295;SDS011;43146;50.976;18.216;2023-03-01T05:09:45;174.20;;;57.20;;
57295;SDS011;43146;50.976;18.216;2023-03-01T05:12:11;193.60;;;61.00;;
57295;SDS011;43146;50.976;18.216;2023-03-01T05:14:37;174.60;;;58.70;;
57295;SDS011;43146;50.976;18.216;2023-03-01T05:17:05;185.20;;;60.40;;
57295;SDS011;43146;50.976;18.216;2023-03-01T05:19:31;172.20;;;61.60;;
57295;SDS011;43146;50.976;18.216;2023-03-01T05:21:58;180.20;;;63.40;;
57295;SDS011;43146;50.976;18.216;2023-03-01T05:24:27;205.70;;;73.80;;
57295;SDS011;43146;50.976;18.216;2023-03-01T05:26:53;175.80;;;55.80;;
57295;SDS011;43146;50.976;18.216;2023-03-01T05:29:20;179.30;;;57.40;;
57295;SDS011;43146;50.976;18.216;2023-03-01T05:31:53;214.60;;;64.20;;
57295;SDS011;43146;50.976;18.216;2023-03-01T05:34:28;182.40;;;58.60;;
57295;SDS011;43146;50.976;18.216;2023-03-01T05:36:55;186.40;;;58.10;;
57295;SDS011;43146;50.976;18.216;2023-03-01T05:39:25;204.40;;;59.80;;
57295;SDS011;43146;50.976;18.216;2023-03-01T05:41:52;197.00;;;62.10;;
57295;SDS011;43146;50.976;18.216;2023-03-01T05:44:18;205.10;;;57.60;;
57295;SDS011;43146;50.976;18.216;2023-03-01T05:46:44;201.10;;;61.50;;
57295;SDS011;43146;50.976;18.216;2023-03-01T05:49:10;198.00;;;58.80;;
57295;SDS011;43146;50.976;18.216;2023-03-01T05:51:39;167.00;;;54.20;;
57295;SDS011;43146;50.976;18.216;2023-03-01T05:54:06;191.20;;;57.40;;
57295;SDS011;43146;50.976;18.216;2023-03-01T05:56:33;218.10;;;67.30;;
57295;SDS011;43146;50.976;18.216;2023-03-01T05:59:00;203.60;;;65.70;;
57295;SDS011;43146;50.976;18.216;2023-03-01T06:01:26;204.70;;;67.20;;
57295;SDS011;43146;50.976;18.216;2023-03-01T06:03:52;209.40;;;74.90;;
57295;SDS011;43146;50.976;18.216;2023-03-01T06:06:18;252.50;;;79.70;;
57295;SDS011;43146;50.976;18.216;2023-03-01T06:08:43;226.90;;;78.10;;
57295;SDS011;43146;50.976;18.216;2023-03-01T06:11:09;208.70;;;74.10;;
57295;SDS011;43146;50.976;18.216;2023-03-01T06:13:35;189.50;;;73.30;;
57295;SDS011;43146;50.976;18.216;2023-03-01T06:16:04;187.50;;;72.40;;
57295;SDS011;43146;50.976;18.216;2023-03-01T06:18:31;154.00;;;56.20;;
57295;SDS011;43146;50.976;18.216;2023-03-01T06:20:57;142.30;;;58.20;;
57295;SDS011;43146;50.976;18.216;2023-03-01T06:23:23;126.90;;;51.90;;
57295;SDS011;43146;50.976;18.216;2023-03-01T06:25:49;119.80;;;49.30;;
57295;SDS011;43146;50.976;18.216;2023-03-01T06:28:15;117.20;;;49.40;;
57295;SDS011;43146;50.976;18.216;2023-03-01T06:30:40;119.20;;;52.20;;
57295;SDS011;43146;50.976;18.216;2023-03-01T06:33:06;112.80;;;48.10;;
57295;SDS011;43146;50.976;18.216;2023-03-01T06:35:31;117.90;;;48.70;;
57295;SDS011;43146;50.976;18.216;2023-03-01T06:37:58;101.80;;;44.60;;
57295;SDS011;43146;50.976;18.216;2023-03-01T06:40:25;119.20;;;51.00;;
57295;SDS011;43146;50.976;18.216;2023-03-01T06:42:51;109.50;;;47.20;;
57295;SDS011;43146;50.976;18.216;2023-03-01T06:45:17;117.40;;;47.90;;
57295;SDS011;43146;50.976;18.216;2023-03-01T06:47:44;118.00;;;49.80;;
57295;SDS011;43146;50.976;18.216;2023-03-01T06:50:10;128.50;;;54.60;;
57295;SDS011;43146;50.976;18.216;2023-03-01T06:52:37;118.50;;;48.30;;
57295;SDS011;43146;50.976;18.216;2023-03-01T06:55:03;112.30;;;44.00;;
57295;SDS011;43146;50.976;18.216;2023-03-01T06:57:29;110.70;;;45.70;;
57295;SDS011;43146;50.976;18.216;2023-03-01T06:59:55;102.80;;;45.40;;
57295;SDS011;43146;50.976;18.216;2023-03-01T07:02:20;107.50;;;46.00;;
57295;SDS011;43146;50.976;18.216;2023-03-01T07:04:47;95.10;;;43.90;;
57295;SDS011;43146;50.976;18.216;2023-03-01T07:07:14;99.90;;;46.30;;
57295;SDS011;43146;50.976;18.216;2023-03-01T07:09:40;116.40;;;50.70;;
57295;SDS011;43146;50.976;18.216;2023-03-01T07:12:06;125.10;;;55.20;;
57295;SDS011;43146;50.976;18.216;2023-03-01T07:14:32;130.50;;;57.40;;
57295;SDS011;43146;50.976;18.216;2023-03-01T07:16:57;139.20;;;60.70;;
57295;SDS011;43146;50.976;18.216;2023-03-01T07:19:23;132.50;;;57.40;;
57295;SDS011;43146;50.976;18.216;2023-03-01T07:21:49;112.80;;;50.90;;
57295;SDS011;43146;50.976;18.216;2023-03-01T07:24:14;95.90;;;45.60;;
57295;SDS011;43146;50.976;18.216;2023-03-01T07:26:40;95.40;;;44.30;;
57295;SDS011;43146;50.976;18.216;2023-03-01T07:29:06;89.10;;;42.40;;
57295;SDS011;43146;50.976;18.216;2023-03-01T07:31:34;81.10;;;39.50;;
57295;SDS011;43146;50.976;18.216;2023-03-01T07:34:00;79.90;;;36.50;;
57295;SDS011;43146;50.976;18.216;2023-03-01T07:36:25;73.50;;;36.10;;
57295;SDS011;43146;50.976;18.216;2023-03-01T07:38:51;68.60;;;34.90;;
57295;SDS011;43146;50.976;18.216;2023-03-01T07:41:17;69.90;;;33.60;;
57295;SDS011;43146;50.976;18.216;2023-03-01T07:43:43;70.20;;;34.90;;
57295;SDS011;43146;50.976;18.216;2023-03-01T07:46:09;67.60;;;32.60;;
57295;SDS011;43146;50.976;18.216;2023-03-01T07:48:36;64.70;;;33.30;;
57295;SDS011;43146;50.976;18.216;2023-03-01T07:51:02;61.40;;;32.00;;
57295;SDS011;43146;50.976;18.216;2023-03-01T07:53:29;63.40;;;34.20;;
57295;SDS011;43146;50.976;18.216;2023-03-01T07:56:00;61.00;;;31.40;;
57295;SDS011;43146;50.976;18.216;2023-03-01T07:58:39;58.00;;;30.70;;
57295;SDS011;43146;50.976;18.216;2023-03-01T08:01:07;56.80;;;31.70;;
57295;SDS011;43146;50.976;18.216;2023-03-01T08:03:35;61.90;;;31.40;;
57295;SDS011;43146;50.976;18.216;2023-03-01T08:06:02;52.20;;;28.60;;
57295;SDS011;43146;50.976;18.216;2023-03-01T08:08:30;53.20;;;27.50;;
57295;SDS011;43146;50.976;18.216;2023-03-01T08:10:56;54.60;;;30.20;;
57295;SDS011;43146;50.976;18.216;2023-03-01T08:13:22;51.60;;;29.60;;
57295;SDS011;43146;50.976;18.216;2023-03-01T08:15:49;64.20;;;32.60;;
57295;SDS011;43146;50.976;18.216;2023-03-01T08:18:16;96.70;;;46.80;;
57295;SDS011;43146;50.976;18.216;2023-03-01T08:20:43;91.50;;;47.20;;
57295;SDS011;43146;50.976;18.216;2023-03-01T08:23:09;68.10;;;36.40;;
57295;SDS011;43146;50.976;18.216;2023-03-01T08:25:34;53.10;;;29.50;;
57295;SDS011;43146;50.976;18.216;2023-03-01T08:28:00;56.60;;;32.70;;
57295;SDS011;43146;50.976;18.216;2023-03-01T08:30:26;55.80;;;32.80;;
57295;SDS011;43146;50.976;18.216;2023-03-01T08:32:52;48.30;;;25.60;;
57295;SDS011;43146;50.976;18.216;2023-03-01T08:35:18;65.20;;;33.00;;
57295;SDS011;43146;50.976;18.216;2023-03-01T08:37:45;91.30;;;45.60;;
57295;SDS011;43146;50.976;18.216;2023-03-01T08:40:10;93.80;;;49.70;;
57295;SDS011;43146;50.976;18.216;2023-03-01T08:42:39;84.40;;;44.00;;
57295;SDS011;43146;50.976;18.216;2023-03-01T08:45:08;91.20;;;47.40;;
57295;SDS011;43146;50.976;18.216;2023-03-01T08:47:35;86.40;;;44.30;;
57295;SDS011;43146;50.976;18.216;2023-03-01T08:50:01;94.00;;;46.80;;
57295;SDS011;43146;50.976;18.216;2023-03-01T08:52:27;87.90;;;46.40;;
57295;SDS011;43146;50.976;18.216;2023-03-01T08:54:53;92.00;;;46.20;;
57295;SDS011;43146;50.976;18.216;2023-03-01T08:57:18;78.80;;;40.30;;
57295;SDS011;43146;50.976;18.216;2023-03-01T08:59:44;62.30;;;35.70;;
57295;SDS011;43146;50.976;18.216;2023-03-01T09:02:17;70.90;;;38.90;;
57295;SDS011;43146;50.976;18.216;2023-03-01T09:04:43;63.20;;;33.40;;
57295;SDS011;43146;50.976;18.216;2023-03-01T09:07:10;63.50;;;35.30;;
57295;SDS011;43146;50.976;18.216;2023-03-01T09:09:36;68.30;;;35.30;;
57295;SDS011;43146;50.976;18.216;2023-03-01T09:12:02;60.20;;;32.50;;
57295;SDS011;43146;50.976;18.216;2023-03-01T09:14:29;45.00;;;25.70;;
57295;SDS011;43146;50.976;18.216;2023-03-01T09:16:54;43.10;;;24.90;;
57295;SDS011;43146;50.976;18.216;2023-03-01T09:19:20;42.30;;;24.30;;
57295;SDS011;43146;50.976;18.216;2023-03-01T09:21:46;39.60;;;20.50;;
57295;SDS011;43146;50.976;18.216;2023-03-01T09:24:18;32.70;;;17.60;;
57295;SDS011;43146;50.976;18.216;2023-03-01T09:26:47;33.60;;;18.70;;
57295;SDS011;43146;50.976;18.216;2023-03-01T09:29:14;29.80;;;17.20;;
57295;SDS011;43146;50.976;18.216;2023-03-01T09:31:41;31.10;;;17.20;;
57295;SDS011;43146;50.976;18.216;2023-03-01T09:34:07;30.10;;;17.70;;
57295;SDS011;43146;50.976;18.216;2023-03-01T09:36:33;34.60;;;20.10;;
57295;SDS011;43146;50.976;18.216;2023-03-01T09:38:59;29.30;;;17.40;;
57295;SDS011;43146;50.976;18.216;2023-03-01T09:47:00;53.90;;;25.80;;
57295;SDS011;43146;50.976;18.216;2023-03-01T09:49:36;37.90;;;20.90;;
57295;SDS011;43146;50.976;18.216;2023-03-01T09:54:56;128.00;;;78.00;;
57295;SDS011;43146;50.976;18.216;2023-03-01T09:57:29;27.70;;;11.80;;
57295;SDS011;43146;50.976;18.216;2023-03-01T10:00:33;16.10;;;7.10;;
57295;SDS011;43146;50.976;18.216;2023-03-01T10:08:26;150.60;;;65.00;;
57295;SDS011;43146;50.976;18.216;2023-03-01T10:11:01;27.30;;;12.10;;
57295;SDS011;43146;50.976;18.216;2023-03-01T10:16:43;36.00;;;17.00;;
57295;SDS011;43146;50.976;18.216;2023-03-01T10:19:24;28.40;;;13.20;;
57295;SDS011;43146;50.976;18.216;2023-03-01T10:22:17;27.50;;;11.10;;
57295;SDS011;43146;50.976;18.216;2023-03-01T10:24:48;31.40;;;14.40;;
57295;SDS011;43146;50.976;18.216;2023-03-01T10:29:51;46.10;;;23.30;;
57295;SDS011;43146;50.976;18.216;2023-03-01T10:32:38;96.90;;;41.50;;
57295;SDS011;43146;50.976;18.216;2023-03-01T10:35:18;91.10;;;39.60;;
57295;SDS011;43146;50.976;18.216;2023-03-01T10:38:07;36.00;;;16.70;;
57295;SDS011;43146;50.976;18.216;2023-03-01T10:40:35;34.30;;;15.50;;
57295;SDS011;43146;50.976;18.216;2023-03-01T10:43:05;71.70;;;31.40;;
57295;SDS011;43146;50.976;18.216;2023-03-01T10:50:40;33.90;;;15.20;;
57295;SDS011;43146;50.976;18.216;2023-03-01T10:53:23;36.40;;;15.30;;
57295;SDS011;43146;50.976;18.216;2023-03-01T10:58:34;210.30;;;87.00;;
57295;SDS011;43146;50.976;18.216;2023-03-01T11:01:03;83.70;;;32.60;;
57295;SDS011;43146;50.976;18.216;2023-03-01T11:03:37;48.40;;;21.60;;
57295;SDS011;43146;50.976;18.216;2023-03-01T11:08:33;31.40;;;15.00;;
57295;SDS011;43146;50.976;18.216;2023-03-01T11:11:21;25.90;;;13.00;;
57295;SDS011;43146;50.976;18.216;2023-03-01T11:16:24;37.00;;;18.20;;
57295;SDS011;43146;50.976;18.216;2023-03-01T11:21:34;36.90;;;19.50;;
57295;SDS011;43146;50.976;18.216;2023-03-01T11:24:16;89.20;;;43.50;;
57295;SDS011;43146;50.976;18.216;2023-03-01T11:26:44;39.40;;;18.70;;
57295;SDS011;43146;50.976;18.216;2023-03-01T11:29:16;47.00;;;21.90;;
57295;SDS011;43146;50.976;18.216;2023-03-01T11:32:05;279.90;;;95.70;;
57295;SDS011;43146;50.976;18.216;2023-03-01T11:34:47;272.10;;;91.50;;
57295;SDS011;43146;50.976;18.216;2023-03-01T11:37:28;76.30;;;31.80;;
57295;SDS011;43146;50.976;18.216;2023-03-01T11:42:43;34.20;;;15.20;;
57295;SDS011;43146;50.976;18.216;2023-03-01T11:45:41;33.50;;;15.90;;
57295;SDS011;43146;50.976;18.216;2023-03-01T11:48:27;53.50;;;33.50;;
57295;SDS011;43146;50.976;18.216;2023-03-01T11:51:00;37.70;;;19.80;;
57295;SDS011;43146;50.976;18.216;2023-03-01T12:13:49;28.10;;;10.40;;
57295;SDS011;43146;50.976;18.216;2023-03-01T12:17:00;38.40;;;16.10;;
57295;SDS011;43146;50.976;18.216;2023-03-01T12:33:58;30.90;;;14.50;;
57295;SDS011;43146;50.976;18.216;2023-03-01T12:36:31;19.60;;;9.10;;
57295;SDS011;43146;50.976;18.216;2023-03-01T12:44:24;40.70;;;22.80;;
57295;SDS011;43146;50.976;18.216;2023-03-01T12:47:14;34.10;;;18.00;;
57295;SDS011;43146;50.976;18.216;2023-03-01T12:49:45;30.60;;;14.40;;
57295;SDS011;43146;50.976;18.216;2023-03-01T12:52:16;28.30;;;12.30;;
57295;SDS011;43146;50.976;18.216;2023-03-01T12:54:44;32.90;;;15.50;;
57295;SDS011;43146;50.976;18.216;2023-03-01T12:57:27;21.30;;;9.80;;
57295;SDS011;43146;50.976;18.216;2023-03-01T13:15:45;25.00;;;12.20;;
57295;SDS011;43146;50.976;18.216;2023-03-01T13:23:09;22.20;;;9.30;;
57295;SDS011;43146;50.976;18.216;2023-03-01T13:28:35;35.90;;;19.80;;
57295;SDS011;43146;50.976;18.216;2023-03-01T13:33:41;23.80;;;11.20;;
57295;SDS011;43146;50.976;18.216;2023-03-01T13:39:03;41.40;;;17.80;;
57295;SDS011;43146;50.976;18.216;2023-03-01T13:46:44;44.90;;;20.80;;
57295;SDS011;43146;50.976;18.216;2023-03-01T13:49:11;32.50;;;15.70;;
57295;SDS011;43146;50.976;18.216;2023-03-01T13:51:48;26.80;;;11.30;;
57295;SDS011;43146;50.976;18.216;2023-03-01T13:54:15;26.90;;;11.50;;
57295;SDS011;43146;50.976;18.216;2023-03-01T13:56:42;20.00;;;8.90;;
57295;SDS011;43146;50.976;18.216;2023-03-01T13:59:19;28.50;;;12.20;;
57295;SDS011;43146;50.976;18.216;2023-03-01T14:01:53;37.10;;;16.30;;
57295;SDS011;43146;50.976;18.216;2023-03-01T14:04:25;25.90;;;11.20;;
57295;SDS011;43146;50.976;18.216;2023-03-01T14:09:45;25.00;;;11.70;;
57295;SDS011;43146;50.976;18.216;2023-03-01T14:15:06;27.30;;;12.90;;
57295;SDS011;43146;50.976;18.216;2023-03-01T14:20:21;29.30;;;13.70;;
57295;SDS011;43146;50.976;18.216;2023-03-01T14:22:49;27.20;;;13.30;;
57295;SDS011;43146;50.976;18.216;2023-03-01T14:25:20;25.20;;;12.60;;
57295;SDS011;43146;50.976;18.216;2023-03-01T14:27:59;26.00;;;12.80;;
57295;SDS011;43146;50.976;18.216;2023-03-01T14:30:30;29.70;;;13.90;;
57295;SDS011;43146;50.976;18.216;2023-03-01T14:33:00;36.50;;;16.80;;
57295;SDS011;43146;50.976;18.216;2023-03-01T14:35:31;28.90;;;11.90;;
57295;SDS011;43146;50.976;18.216;2023-03-01T14:37:59;27.60;;;10.60;;
57295;SDS011;43146;50.976;18.216;2023-03-01T14:40:28;34.90;;;12.60;;
57295;SDS011;43146;50.976;18.216;2023-03-01T14:42:56;32.70;;;13.80;;
57295;SDS011;43146;50.976;18.216;2023-03-01T14:45:24;36.50;;;15.40;;
57295;SDS011;43146;50.976;18.216;2023-03-01T14:47:52;33.60;;;16.50;;
57295;SDS011;43146;50.976;18.216;2023-03-01T14:50:26;38.40;;;15.60;;
57295;SDS011;43146;50.976;18.216;2023-03-01T14:52:55;34.30;;;15.70;;
57295;SDS011;43146;50.976;18.216;2023-03-01T14:55:27;32.10;;;16.60;;
57295;SDS011;43146;50.976;18.216;2023-03-01T14:58:09;32.90;;;16.30;;
57295;SDS011;43146;50.976;18.216;2023-03-01T15:00:38;35.00;;;18.00;;
57295;SDS011;43146;50.976;18.216;2023-03-01T15:03:11;37.70;;;15.70;;
57295;SDS011;43146;50.976;18.216;2023-03-01T15:05:40;30.60;;;13.30;;
57295;SDS011;43146;50.976;18.216;2023-03-01T15:08:07;26.20;;;12.40;;
57295;SDS011;43146;50.976;18.216;2023-03-01T15:10:55;33.60;;;17.10;;
57295;SDS011;43146;50.976;18.216;2023-03-01T15:13:25;20.30;;;9.10;;
57295;SDS011;43146;50.976;18.216;2023-03-01T15:16:00;24.70;;;9.20;;
57295;SDS011;43146;50.976;18.216;2023-03-01T15:18:37;32.70;;;12.90;;
57295;SDS011;43146;50.976;18.216;2023-03-01T15:21:13;33.70;;;11.60;;
57295;SDS011;43146;50.976;18.216;2023-03-01T15:23:59;28.10;;;10.20;;
57295;SDS011;43146;50.976;18.216;2023-03-01T15:26:49;18.70;;;6.70;;
57295;SDS011;43146;50.976;18.216;2023-03-01T15:29:20;31.90;;;11.50;;
57295;SDS011;43146;50.976;18.216;2023-03-01T15:31:56;29.90;;;11.60;;
57295;SDS011;43146;50.976;18.216;2023-03-01T15:34:42;27.80;;;11.90;;
57295;SDS011;43146;50.976;18.216;2023-03-01T15:40:18;29.40;;;11.80;;
57295;SDS011;43146;50.976;18.216;2023-03-01T15:42:45;25.00;;;10.20;;
57295;SDS011;43146;50.976;18.216;2023-03-01T15:47:53;35.80;;;13.70;;
57295;SDS011;43146;50.976;18.216;2023-03-01T15:50:30;36.40;;;14.80;;
57295;SDS011;43146;50.976;18.216;2023-03-01T15:52:58;28.40;;;12.50;;
57295;SDS011;43146;50.976;18.216;2023-03-01T15:55:29;40.10;;;16.90;;
57295;SDS011;43146;50.976;18.216;2023-03-01T15:57:59;33.10;;;12.90;;
57295;SDS011;43146;50.976;18.216;2023-03-01T16:00:29;34.20;;;14.80;;
57295;SDS011;43146;50.976;18.216;2023-03-01T16:02:55;34.80;;;15.00;;
57295;SDS011;43146;50.976;18.216;2023-03-01T16:05:23;40.60;;;17.30;;
57295;SDS011;43146;50.976;18.216;2023-03-01T16:07:51;36.20;;;14.50;;
57295;SDS011;43146;50.976;18.216;2023-03-01T16:10:17;40.10;;;17.60;;
57295;SDS011;43146;50.976;18.216;2023-03-01T16:12:43;37.00;;;17.80;;
57295;SDS011;43146;50.976;18.216;2023-03-01T16:17:44;60.60;;;20.80;;
57295;SDS011;43146;50.976;18.216;2023-03-01T16:20:10;82.60;;;24.80;;
57295;SDS011;43146;50.976;18.216;2023-03-01T16:22:36;73.70;;;24.80;;
57295;SDS011;43146;50.976;18.216;2023-03-01T16:25:02;67.30;;;23.40;;
57295;SDS011;43146;50.976;18.216;2023-03-01T16:27:28;62.00;;;22.90;;
57295;SDS011;43146;50.976;18.216;2023-03-01T16:29:54;52.50;;;20.50;;
57295;SDS011;43146;50.976;18.216;2023-03-01T16:32:20;59.40;;;21.90;;
57295;SDS011;43146;50.976;18.216;2023-03-01T16:34:46;56.10;;;22.40;;
57295;SDS011;43146;50.976;18.216;2023-03-01T16:37:14;56.00;;;21.90;;
57295;SDS011;43146;50.976;18.216;2023-03-01T16:39:41;56.90;;;23.20;;
57295;SDS011;43146;50.976;18.216;2023-03-01T16:42:07;52.00;;;22.20;;